createdAt,value
2023-03-28T00:00:15.083Z,2.50
2023-03-28T00:01:13.030Z,2.50
2023-03-28T00:02:13.003Z,2.60
2023-03-28T00:03:13.152Z,2.60
2023-03-28T00:04:13.302Z,2.70
2023-03-28T00:05:13.598Z,2.60
2023-03-28T00:06:13.696Z,2.60
2023-03-28T00:07:12.963Z,2.70
2023-03-28T00:08:16.947Z,2.60
2023-03-28T00:09:12.891Z,2.50
2023-03-28T00:10:12.780Z,2.60
2023-03-28T00:11:13.781Z,2.50
2023-03-28T00:12:13.743Z,2.50
2023-03-28T00:13:13.907Z,2.60
2023-03-28T00:14:12.937Z,2.40
2023-03-28T00:15:12.901Z,2.60
2023-03-28T00:16:13.333Z,2.50
2023-03-28T00:17:13.327Z,2.40
2023-03-28T00:18:13.341Z,2.60
2023-03-28T00:19:13.224Z,2.50
2023-03-28T00:20:13.250Z,2.50
2023-03-28T00:21:13.248Z,2.40
2023-03-28T00:22:13.345Z,2.40
2023-03-28T00:23:13.257Z,2.50
2023-03-28T00:24:13.359Z,2.40
2023-03-28T00:25:13.574Z,2.60
2023-03-28T00:26:13.708Z,2.50
2023-03-28T00:27:13.976Z,2.60
2023-03-28T00:28:13.113Z,2.40
2023-03-28T00:29:13.499Z,2.60
2023-03-28T00:30:13.436Z,2.40
2023-03-28T00:31:14.105Z,2.30
2023-03-28T00:32:13.920Z,2.40
2023-03-28T00:33:12.996Z,2.50
2023-03-28T00:34:12.943Z,2.40
2023-03-28T00:35:12.787Z,2.40
2023-03-28T00:36:13.667Z,2.40
2023-03-28T00:37:13.583Z,2.40
2023-03-28T00:38:13.857Z,2.30
2023-03-28T00:39:12.850Z,2.30
2023-03-28T00:40:13.763Z,2.40
2023-03-28T00:41:14.001Z,2.40
2023-03-28T00:42:12.894Z,2.40
2023-03-28T00:43:14.063Z,2.40
2023-03-28T00:44:12.977Z,2.40
2023-03-28T00:45:13.160Z,2.30
2023-03-28T00:46:13.239Z,2.40
2023-03-28T00:47:13.417Z,2.10
2023-03-28T00:48:14.571Z,2.40
2023-03-28T00:49:13.633Z,2.60
2023-03-28T00:50:13.784Z,2.40
2023-03-28T00:51:13.892Z,2.30
2023-03-28T00:52:13.160Z,2.30
2023-03-28T00:53:22.499Z,2.40
2023-03-28T00:54:13.953Z,2.30
2023-03-28T00:55:12.852Z,2.60
2023-03-28T00:56:13.912Z,2.40
2023-03-28T00:57:13.242Z,2.50
2023-03-28T00:58:13.590Z,2.50
2023-03-28T00:59:13.745Z,2.30
2023-03-28T01:00:13.650Z,2.40
2023-03-28T01:01:13.626Z,2.20
2023-03-28T01:02:13.711Z,2.30
2023-03-28T01:03:13.884Z,2.30
2023-03-28T01:04:12.831Z,2.20
2023-03-28T01:05:14.044Z,2.10
2023-03-28T01:06:13.017Z,2.20
2023-03-28T01:07:12.959Z,2.20
2023-03-28T01:08:13.237Z,2.20
2023-03-28T01:09:13.197Z,2.30
2023-03-28T01:10:13.170Z,2.30
2023-03-28T01:11:13.487Z,2.10
2023-03-28T01:12:13.435Z,2.20
2023-03-28T01:13:13.633Z,2.20
2023-03-28T01:14:13.639Z,2.20
2023-03-28T01:15:13.664Z,2.10
2023-03-28T01:16:14.188Z,2.10
2023-03-28T01:17:13.194Z,2.00
2023-03-28T01:18:13.198Z,2.20
2023-03-28T01:19:13.471Z,2.20
2023-03-28T01:20:13.518Z,2.00
2023-03-28T01:21:13.515Z,2.20
2023-03-28T01:22:13.548Z,2.00
2023-03-28T01:23:13.803Z,2.10
2023-03-28T01:24:14.006Z,2.10
2023-03-28T01:25:12.911Z,2.00
2023-03-28T01:26:12.812Z,2.20
2023-03-28T01:27:14.140Z,2.00
2023-03-28T01:28:13.437Z,2.10
2023-03-28T01:29:13.613Z,2.00
2023-03-28T01:30:13.731Z,2.30
2023-03-28T01:31:14.034Z,2.40
2023-03-28T01:32:12.935Z,2.40
2023-03-28T01:33:13.480Z,2.20
2023-03-28T01:34:13.415Z,2.10
2023-03-28T01:35:13.733Z,2.10
2023-03-28T01:36:13.627Z,2.10
2023-03-28T01:37:13.726Z,2.00
2023-03-28T01:38:13.797Z,2.20
2023-03-28T01:39:13.885Z,2.00
2023-03-28T01:40:12.696Z,2.10
2023-03-28T01:41:13.574Z,2.10
2023-03-28T01:42:13.537Z,1.80
2023-03-28T01:43:13.628Z,1.80
2023-03-28T01:44:13.798Z,1.90
2023-03-28T01:45:13.662Z,2.00
2023-03-28T01:46:14.120Z,1.80
2023-03-28T01:47:13.079Z,2.10
2023-03-28T01:48:13.101Z,1.90
2023-03-28T01:49:13.075Z,1.80
2023-03-28T01:50:13.159Z,1.80
2023-03-28T01:51:13.210Z,2.00
2023-03-28T01:52:13.269Z,1.90
2023-03-28T01:53:13.188Z,1.80
2023-03-28T01:54:13.405Z,1.90
2023-03-28T01:55:13.311Z,1.90
2023-03-28T01:56:13.250Z,1.90
2023-03-28T01:57:13.314Z,1.90
2023-03-28T01:58:13.443Z,1.90
2023-03-28T01:59:13.600Z,1.80
2023-03-28T02:00:13.894Z,1.90
2023-03-28T02:01:12.852Z,1.90
2023-03-28T02:02:13.014Z,1.80
2023-03-28T02:03:13.006Z,1.90
2023-03-28T02:04:20.643Z,1.90
2023-03-28T02:05:15.621Z,1.60
2023-03-28T02:06:13.983Z,1.50
2023-03-28T02:07:12.813Z,1.50
2023-03-28T02:08:13.730Z,1.50
2023-03-28T02:09:13.593Z,1.70
2023-03-28T02:10:13.497Z,2.00
2023-03-28T02:11:13.523Z,1.90
2023-03-28T02:12:14.108Z,1.80
2023-03-28T02:13:13.068Z,1.90
2023-03-28T02:14:13.155Z,1.70
2023-03-28T02:15:13.418Z,1.70
2023-03-28T02:16:13.731Z,1.70
2023-03-28T02:17:13.875Z,1.50
2023-03-28T02:18:13.741Z,1.70
2023-03-28T02:19:13.789Z,1.70
2023-03-28T02:20:13.697Z,1.50
2023-03-28T02:21:13.652Z,1.50
2023-03-28T02:22:13.564Z,1.60
2023-03-28T02:23:13.410Z,1.60
2023-03-28T02:24:13.398Z,1.60
2023-03-28T02:25:13.674Z,1.50
2023-03-28T02:26:13.621Z,1.80
2023-03-28T02:27:13.564Z,1.70
2023-03-28T02:28:13.531Z,1.70
2023-03-28T02:29:13.466Z,1.40
2023-03-28T02:30:13.442Z,1.60
2023-03-28T02:31:13.362Z,1.40
2023-03-28T02:32:13.495Z,1.70
2023-03-28T02:33:13.644Z,1.60
2023-03-28T02:34:13.470Z,1.60
2023-03-28T02:35:13.374Z,1.70
2023-03-28T02:36:13.695Z,1.50
2023-03-28T02:37:13.698Z,1.50
2023-03-28T02:38:14.198Z,1.50
2023-03-28T02:39:13.512Z,1.50
2023-03-28T02:40:13.342Z,1.60
2023-03-28T02:41:13.647Z,1.60
2023-03-28T02:42:13.775Z,1.40
2023-03-28T02:43:13.941Z,1.40
2023-03-28T02:44:12.965Z,1.70
2023-03-28T02:45:13.024Z,1.50
2023-03-28T02:46:12.973Z,1.70
2023-03-28T02:47:12.904Z,1.90
2023-03-28T02:48:13.229Z,1.60
2023-03-28T02:49:13.322Z,1.50
2023-03-28T02:50:13.253Z,1.60
2023-03-28T02:51:13.141Z,1.70
2023-03-28T02:52:13.006Z,1.50
2023-03-28T02:53:12.904Z,1.50
2023-03-28T02:54:13.986Z,1.40
2023-03-28T02:55:12.987Z,1.40
2023-03-28T02:56:13.080Z,1.60
2023-03-28T02:57:13.192Z,1.30
2023-03-28T02:58:13.267Z,1.50
2023-03-28T02:59:13.195Z,1.60
2023-03-28T03:00:13.307Z,1.40
2023-03-28T03:01:13.356Z,1.50
2023-03-28T03:02:13.337Z,1.50
2023-03-28T03:03:13.256Z,1.40
2023-03-28T03:04:13.285Z,1.30
2023-03-28T03:05:13.319Z,1.20
2023-03-28T03:06:13.362Z,1.30
2023-03-28T03:07:13.821Z,1.30
2023-03-28T03:08:13.920Z,1.20
2023-03-28T03:09:13.116Z,1.40
2023-03-28T03:10:13.135Z,1.30
2023-03-28T03:11:13.008Z,1.10
2023-03-28T03:12:13.589Z,1.20
2023-03-28T03:13:13.616Z,1.10
2023-03-28T03:14:13.563Z,1.10
2023-03-28T03:15:13.557Z,1.30
2023-03-28T03:16:13.947Z,1.10
2023-03-28T03:17:13.077Z,1.10
2023-03-28T03:18:13.070Z,1.30
2023-03-28T03:19:12.958Z,1.20
2023-03-28T03:20:13.231Z,1.30
2023-03-28T03:21:13.267Z,1.20
2023-03-28T03:22:21.085Z,1.30
2023-03-28T03:23:13.373Z,1.30
2023-03-28T03:24:13.363Z,1.30
2023-03-28T03:25:14.484Z,1.20
2023-03-28T03:26:13.781Z,1.30
2023-03-28T03:27:13.720Z,1.30
2023-03-28T03:28:13.606Z,1.20
2023-03-28T03:29:13.519Z,1.20
2023-03-28T03:30:13.498Z,1.10
2023-03-28T03:31:13.991Z,1.20
2023-03-28T03:32:12.924Z,1.20
2023-03-28T03:33:16.956Z,1.20
2023-03-28T03:34:13.652Z,1.00
2023-03-28T03:35:13.691Z,1.00
2023-03-28T03:36:13.610Z,1.20
2023-03-28T03:37:13.886Z,1.20
2023-03-28T03:38:13.119Z,1.40
2023-03-28T03:39:13.073Z,1.00
2023-03-28T03:40:12.950Z,1.00
2023-03-28T03:41:12.846Z,1.00
2023-03-28T03:42:13.680Z,1.20
2023-03-28T03:43:13.749Z,1.30
2023-03-28T03:44:14.006Z,1.30
2023-03-28T03:45:12.905Z,1.30
2023-03-28T03:46:12.931Z,1.00
2023-03-28T03:47:13.820Z,1.10
2023-03-28T03:48:14.912Z,0.90
2023-03-28T03:49:12.829Z,1.10
2023-03-28T03:50:14.611Z,1.00
2023-03-28T03:51:13.597Z,1.10
2023-03-28T03:52:13.568Z,1.10
2023-03-28T03:53:13.665Z,1.00
2023-03-28T03:54:13.561Z,1.10
2023-03-28T03:55:13.429Z,1.00
2023-03-28T03:56:13.685Z,0.90
2023-03-28T03:57:13.564Z,1.10
2023-03-28T03:58:13.752Z,1.20
2023-03-28T03:59:13.877Z,1.10
2023-03-28T04:00:13.783Z,1.10
2023-03-28T04:01:14.125Z,1.10
2023-03-28T04:02:13.032Z,1.10
2023-03-28T04:03:24.187Z,0.90
2023-03-28T04:04:13.327Z,1.00
2023-03-28T04:05:13.414Z,1.10
2023-03-28T04:06:13.314Z,1.00
2023-03-28T04:07:13.254Z,1.20
2023-03-28T04:08:13.158Z,1.30
2023-03-28T04:09:13.052Z,1.30
2023-03-28T04:10:13.069Z,1.30
2023-03-28T04:11:13.197Z,1.20
2023-03-28T04:12:13.312Z,1.30
2023-03-28T04:13:13.460Z,1.30
2023-03-28T04:14:13.392Z,1.30
2023-03-28T04:15:13.419Z,1.30
2023-03-28T04:16:13.434Z,1.10
2023-03-28T04:17:13.322Z,1.20
2023-03-28T04:18:13.155Z,1.30
2023-03-28T04:19:13.238Z,1.20
2023-03-28T04:20:13.209Z,1.20
2023-03-28T04:21:13.288Z,1.20
2023-03-28T04:22:13.227Z,1.20
2023-03-28T04:23:13.258Z,1.20
2023-03-28T04:24:13.250Z,1.30
2023-03-28T04:25:13.439Z,1.20
2023-03-28T04:26:13.539Z,1.30
2023-03-28T04:27:13.554Z,1.10
2023-03-28T04:28:13.515Z,1.40
2023-03-28T04:29:13.780Z,1.20
2023-03-28T04:30:13.826Z,1.20
2023-03-28T04:31:13.774Z,1.20
2023-03-28T04:32:13.776Z,1.30
2023-03-28T04:33:13.734Z,1.30
2023-03-28T04:34:13.619Z,1.30
2023-03-28T04:35:13.902Z,1.20
2023-03-28T04:36:12.806Z,1.20
2023-03-28T04:37:13.713Z,1.20
2023-03-28T04:38:20.848Z,1.40
2023-03-28T04:39:13.774Z,1.20
2023-03-28T04:40:13.570Z,1.20
2023-03-28T04:41:13.717Z,1.30
2023-03-28T04:42:13.643Z,1.40
2023-03-28T04:43:13.470Z,1.20
2023-03-28T04:44:13.407Z,1.50
2023-03-28T04:45:15.742Z,1.30
2023-03-28T04:46:50.068Z,1.20
2023-03-28T04:47:14.030Z,1.30
2023-03-28T04:48:12.860Z,1.30
2023-03-28T04:49:13.682Z,1.50
2023-03-28T04:50:13.704Z,1.50
2023-03-28T04:51:13.787Z,1.30
2023-03-28T04:52:14.106Z,1.30
2023-03-28T04:53:13.364Z,1.40
2023-03-28T04:54:13.155Z,1.40
2023-03-28T04:55:13.137Z,1.30
2023-03-28T04:56:13.290Z,1.40
2023-03-28T04:57:13.527Z,1.30
2023-03-28T04:58:13.580Z,1.30
2023-03-28T04:59:13.656Z,1.40
2023-03-28T05:00:13.572Z,1.30
2023-03-28T05:01:13.822Z,1.50
2023-03-28T05:02:12.919Z,1.40
2023-03-28T05:03:13.287Z,1.40
2023-03-28T05:04:13.445Z,1.10
2023-03-28T05:05:13.360Z,1.10
2023-03-28T05:06:13.571Z,1.10
2023-03-28T05:07:13.452Z,1.20
2023-03-28T05:08:13.393Z,1.20
2023-03-28T05:09:13.224Z,1.30
2023-03-28T05:10:14.217Z,1.30
2023-03-28T05:11:13.327Z,1.40
2023-03-28T05:12:13.146Z,1.30
2023-03-28T05:13:13.203Z,1.30
2023-03-28T05:14:13.189Z,1.30
2023-03-28T05:15:23.082Z,1.40
2023-03-28T05:16:13.460Z,1.40
2023-03-28T05:17:13.530Z,1.10
2023-03-28T05:18:13.565Z,1.20
2023-03-28T05:19:13.819Z,0.90
2023-03-28T05:20:14.063Z,1.20
2023-03-28T05:21:12.939Z,1.10
2023-03-28T05:22:13.161Z,1.20
2023-03-28T05:23:13.599Z,1.10
2023-03-28T05:24:13.584Z,1.10
2023-03-28T05:25:13.720Z,1.30
2023-03-28T05:26:13.823Z,1.20
2023-03-28T05:27:13.767Z,1.20
2023-03-28T05:28:13.761Z,1.20
2023-03-28T05:29:14.019Z,1.20
2023-03-28T05:30:13.163Z,1.30
2023-03-28T05:31:13.089Z,1.30
2023-03-28T05:32:13.135Z,1.30
2023-03-28T05:33:18.383Z,1.20
2023-03-28T05:34:13.848Z,1.20
2023-03-28T05:35:13.960Z,1.30
2023-03-28T05:36:13.024Z,1.30
2023-03-28T05:37:13.006Z,1.60
2023-03-28T05:38:13.415Z,1.50
2023-03-28T05:39:13.363Z,1.40
2023-03-28T05:40:13.755Z,1.60
2023-03-28T05:41:14.115Z,1.50
2023-03-28T05:42:13.103Z,1.50
2023-03-28T05:43:13.410Z,1.40
2023-03-28T05:44:13.416Z,1.50
2023-03-28T05:45:13.283Z,1.70
2023-03-28T05:46:13.361Z,1.50
2023-03-28T05:47:13.560Z,1.50
2023-03-28T05:48:13.617Z,1.40
2023-03-28T05:49:13.539Z,1.60
2023-03-28T05:50:13.751Z,1.50
2023-03-28T05:51:13.688Z,1.40
2023-03-28T05:52:13.781Z,1.50
2023-03-28T05:53:13.695Z,1.50
2023-03-28T05:54:14.195Z,1.30
2023-03-28T05:55:13.120Z,1.30
2023-03-28T05:56:13.047Z,1.30
2023-03-28T05:57:13.320Z,1.40
2023-03-28T05:58:13.615Z,1.40
2023-03-28T05:59:13.438Z,1.60
2023-03-28T06:00:13.289Z,1.70
2023-03-28T06:01:13.225Z,1.40
2023-03-28T06:02:13.182Z,1.60
2023-03-28T06:03:16.788Z,1.60
2023-03-28T06:04:13.539Z,1.50
2023-03-28T06:05:13.660Z,1.40
2023-03-28T06:06:13.756Z,1.60
2023-03-28T06:07:13.786Z,1.40
2023-03-28T06:08:13.774Z,1.50
2023-03-28T06:09:13.698Z,1.70
2023-03-28T06:10:13.902Z,1.60
2023-03-28T06:11:12.730Z,1.50
2023-03-28T06:12:14.018Z,1.60
2023-03-28T06:13:13.222Z,1.70
2023-03-28T06:14:13.100Z,1.60
2023-03-28T06:15:12.935Z,1.80
2023-03-28T06:16:13.078Z,1.80
2023-03-28T06:17:13.127Z,2.00
2023-03-28T06:18:13.423Z,2.00
2023-03-28T06:19:18.285Z,2.20
2023-03-28T06:20:14.140Z,1.80
2023-03-28T06:21:13.775Z,2.10
2023-03-28T06:22:13.959Z,2.00
2023-03-28T06:23:12.827Z,2.00
2023-03-28T06:24:13.656Z,2.00
2023-03-28T06:25:13.814Z,2.10
2023-03-28T06:26:13.828Z,2.10
2023-03-28T06:27:13.787Z,2.30
2023-03-28T06:28:14.017Z,2.40
2023-03-28T06:29:13.149Z,2.60
2023-03-28T06:30:13.125Z,2.40
2023-03-28T06:31:13.141Z,2.50
2023-03-28T06:32:13.288Z,2.60
2023-03-28T06:33:14.469Z,2.40
2023-03-28T06:34:13.777Z,2.60
2023-03-28T06:35:13.846Z,2.30
2023-03-28T06:36:13.731Z,2.70
2023-03-28T06:37:13.981Z,2.70
2023-03-28T06:38:12.981Z,2.90
2023-03-28T06:39:12.905Z,2.80
2023-03-28T06:40:12.763Z,2.60
2023-03-28T06:41:14.069Z,2.70
2023-03-28T06:42:13.042Z,2.70
2023-03-28T06:43:13.061Z,2.60
2023-03-28T06:44:13.346Z,2.90
2023-03-28T06:45:13.460Z,2.80
2023-03-28T06:46:13.842Z,3.00
2023-03-28T06:47:17.749Z,2.90
2023-03-28T06:48:14.124Z,3.10
2023-03-28T06:49:13.368Z,3.00
2023-03-28T06:50:13.676Z,3.00
2023-03-28T06:51:13.770Z,3.20
2023-03-28T06:52:13.683Z,3.10
2023-03-28T06:53:15.294Z,3.00
2023-03-28T06:54:13.423Z,3.20
2023-03-28T06:55:13.401Z,2.90
2023-03-28T06:56:13.507Z,3.00
2023-03-28T06:57:13.742Z,3.00
2023-03-28T06:58:13.594Z,2.90
2023-03-28T06:59:13.708Z,3.30
2023-03-28T07:00:13.967Z,3.50
2023-03-28T07:01:12.988Z,3.30
2023-03-28T07:02:13.003Z,3.60
2023-03-28T07:03:13.058Z,3.80
2023-03-28T07:04:13.171Z,3.70
2023-03-28T07:05:13.211Z,3.70
2023-03-28T07:06:13.185Z,3.50
2023-03-28T07:07:13.219Z,3.70
2023-03-28T07:08:13.195Z,3.60
2023-03-28T07:09:13.300Z,3.30
2023-03-28T07:10:13.259Z,3.50
2023-03-28T07:11:13.452Z,3.70
2023-03-28T07:12:13.329Z,3.60
2023-03-28T07:13:13.173Z,3.50
2023-03-28T07:14:12.992Z,3.70
2023-03-28T07:15:12.918Z,3.70
2023-03-28T07:16:12.919Z,3.80
2023-03-28T07:17:12.958Z,3.90
2023-03-28T07:18:13.192Z,4.00
2023-03-28T07:19:13.221Z,3.80
2023-03-28T07:20:13.230Z,3.80
2023-03-28T07:21:13.250Z,3.80
2023-03-28T07:22:13.651Z,3.80
2023-03-28T07:23:13.538Z,4.10
2023-03-28T07:24:13.452Z,4.30
2023-03-28T07:25:13.589Z,4.30
2023-03-28T07:26:13.578Z,3.90
2023-03-28T07:27:15.981Z,4.00
2023-03-28T07:28:14.236Z,4.00
2023-03-28T07:29:13.246Z,4.40
2023-03-28T07:30:13.311Z,4.10
2023-03-28T07:31:13.493Z,4.20
2023-03-28T07:32:13.390Z,4.50
2023-03-28T07:33:18.921Z,4.90
2023-03-28T07:34:13.505Z,5.00
2023-03-28T07:35:13.660Z,4.80
2023-03-28T07:36:13.751Z,4.90
2023-03-28T07:37:14.107Z,4.90
2023-03-28T07:38:13.127Z,5.00
2023-03-28T07:39:13.073Z,4.70
2023-03-28T07:40:13.217Z,4.90
2023-03-28T07:41:13.447Z,4.70
2023-03-28T07:42:13.361Z,4.20
2023-03-28T07:43:13.561Z,4.30
2023-03-28T07:44:13.437Z,4.40
2023-03-28T07:45:13.477Z,4.70
2023-03-28T07:46:13.768Z,4.70
2023-03-28T07:47:14.013Z,4.40
2023-03-28T07:48:12.974Z,4.50
2023-03-28T07:49:12.901Z,4.60
2023-03-28T07:50:12.783Z,4.90
2023-03-28T07:51:13.606Z,4.90
2023-03-28T07:52:13.543Z,4.80
2023-03-28T07:53:13.469Z,4.90
2023-03-28T07:54:13.512Z,4.80
2023-03-28T07:55:13.535Z,5.00
2023-03-28T07:56:13.472Z,5.00
2023-03-28T07:57:13.614Z,5.20
2023-03-28T07:58:14.990Z,5.00
2023-03-28T07:59:12.875Z,5.20
2023-03-28T08:00:13.911Z,4.80
2023-03-28T08:01:13.078Z,5.00
2023-03-28T08:02:13.199Z,5.00
2023-03-28T08:03:13.270Z,5.30
2023-03-28T08:04:13.585Z,5.50
2023-03-28T08:05:13.955Z,5.00
2023-03-28T08:06:28.554Z,5.10
2023-03-28T08:07:13.594Z,5.20
2023-03-28T08:08:13.493Z,5.20
2023-03-28T08:09:13.606Z,5.10
2023-03-28T08:10:13.498Z,5.20
2023-03-28T08:11:13.514Z,5.50
2023-03-28T08:12:13.687Z,5.30
2023-03-28T08:13:13.860Z,5.30
2023-03-28T08:14:13.977Z,5.70
2023-03-28T08:15:12.958Z,5.70
2023-03-28T08:16:12.904Z,5.40
2023-03-28T08:17:13.313Z,5.40
2023-03-28T08:18:13.429Z,5.10
2023-03-28T08:19:13.338Z,5.20
2023-03-28T08:20:13.251Z,5.30
2023-03-28T08:21:13.272Z,5.40
2023-03-28T08:22:13.214Z,5.20
2023-03-28T08:23:13.390Z,5.10
2023-03-28T08:24:19.484Z,5.70
2023-03-28T08:25:13.768Z,5.70
2023-03-28T08:26:13.710Z,5.60
2023-03-28T08:27:13.657Z,5.50
2023-03-28T08:28:13.579Z,5.90
2023-03-28T08:29:13.569Z,5.40
2023-03-28T08:30:13.598Z,5.70
2023-03-28T08:31:13.848Z,5.60
2023-03-28T08:32:13.061Z,6.30
2023-03-28T08:33:13.185Z,6.10
2023-03-28T08:34:13.332Z,5.90
2023-03-28T08:35:13.404Z,5.40
2023-03-28T08:36:13.342Z,5.50
2023-03-28T08:37:13.424Z,5.70
2023-03-28T08:38:13.881Z,5.80
2023-03-28T08:39:13.960Z,5.70
2023-03-28T08:40:12.858Z,5.80
2023-03-28T08:41:13.851Z,6.10
2023-03-28T08:42:13.834Z,6.10
2023-03-28T08:43:13.729Z,6.70
2023-03-28T08:44:13.785Z,6.80
2023-03-28T08:45:13.689Z,6.10
2023-03-28T08:46:13.655Z,6.00
2023-03-28T08:47:14.187Z,6.10
2023-03-28T08:48:13.307Z,6.30
2023-03-28T08:49:13.463Z,6.50
2023-03-28T08:50:13.630Z,6.60
2023-03-28T08:51:14.056Z,6.60
2023-03-28T08:52:12.983Z,6.60
2023-03-28T08:53:13.153Z,6.60
2023-03-28T08:54:13.073Z,6.10
2023-03-28T08:55:13.029Z,6.80
2023-03-28T08:56:13.009Z,6.60
2023-03-28T08:57:12.939Z,6.40
2023-03-28T08:58:12.769Z,7.10
2023-03-28T08:59:14.129Z,6.70
2023-03-28T09:00:12.953Z,6.60
2023-03-28T09:01:12.820Z,7.10
2023-03-28T09:02:13.846Z,6.90
2023-03-28T09:03:14.235Z,7.20
2023-03-28T09:04:13.326Z,7.20
2023-03-28T09:05:23.066Z,6.70
2023-03-28T09:06:13.120Z,7.10
2023-03-28T09:07:13.328Z,7.60
2023-03-28T09:08:13.304Z,7.40
2023-03-28T09:09:13.400Z,7.30
2023-03-28T09:10:13.372Z,7.30
2023-03-28T09:11:13.288Z,7.80
2023-03-28T09:12:13.268Z,7.70
2023-03-28T09:13:13.176Z,7.50
2023-03-28T09:14:13.320Z,7.60
2023-03-28T09:15:13.238Z,7.40
2023-03-28T09:16:13.302Z,6.90
2023-03-28T09:17:13.455Z,7.30
2023-03-28T09:18:13.746Z,7.00
2023-03-28T09:19:14.426Z,7.60
2023-03-28T09:20:13.347Z,7.40
2023-03-28T09:21:13.471Z,7.40
2023-03-28T09:22:16.042Z,7.50
2023-03-28T09:23:13.501Z,7.40
2023-03-28T09:24:13.416Z,7.00
2023-03-28T09:25:13.759Z,7.00
2023-03-28T09:26:13.764Z,7.60
2023-03-28T09:27:13.867Z,7.80
2023-03-28T09:28:13.774Z,8.00
2023-03-28T09:29:14.082Z,7.90
2023-03-28T09:30:13.175Z,8.00
2023-03-28T09:31:13.613Z,7.70
2023-03-28T09:32:13.830Z,6.90
2023-03-28T09:33:13.839Z,7.20
2023-03-28T09:34:13.883Z,7.00
2023-03-28T09:35:12.792Z,7.00
2023-03-28T09:36:13.883Z,6.90
2023-03-28T09:37:13.239Z,7.00
2023-03-28T09:38:13.164Z,7.20
2023-03-28T09:39:13.224Z,7.50
2023-03-28T09:40:13.277Z,7.60
2023-03-28T09:41:13.270Z,8.00
2023-03-28T09:42:13.196Z,8.20
2023-03-28T09:43:13.141Z,8.50
2023-03-28T09:44:13.090Z,8.00
2023-03-28T09:45:12.947Z,8.00
2023-03-28T09:46:12.842Z,7.80
2023-03-28T09:47:13.758Z,7.30
2023-03-28T09:48:14.150Z,7.00
2023-03-28T09:49:13.317Z,7.10
2023-03-28T09:50:13.521Z,7.80
2023-03-28T09:51:13.543Z,7.50
2023-03-28T09:52:13.440Z,7.50
2023-03-28T09:53:13.328Z,7.60
2023-03-28T09:54:13.235Z,7.80
2023-03-28T09:55:13.716Z,8.00
2023-03-28T09:56:13.760Z,7.10
2023-03-28T09:57:13.910Z,7.50
2023-03-28T09:58:13.126Z,7.80
2023-03-28T09:59:13.105Z,8.00
2023-03-28T10:00:12.932Z,8.20
2023-03-28T10:01:12.898Z,8.00
2023-03-28T10:02:12.969Z,7.70
2023-03-28T10:03:13.251Z,7.40
2023-03-28T10:04:13.364Z,7.20
2023-03-28T10:05:13.550Z,7.30
2023-03-28T10:06:13.460Z,7.60
2023-03-28T10:07:13.433Z,7.50
2023-03-28T10:08:13.470Z,7.30
2023-03-28T10:09:13.745Z,7.60
2023-03-28T10:10:13.797Z,7.80
2023-03-28T10:11:13.710Z,7.60
2023-03-28T10:12:13.514Z,7.50
2023-03-28T10:13:14.037Z,7.20
2023-03-28T10:14:12.952Z,7.00
2023-03-28T10:15:12.785Z,7.10
2023-03-28T10:16:13.751Z,7.30
2023-03-28T10:17:13.962Z,7.40
2023-03-28T10:18:13.231Z,8.10
2023-03-28T10:19:13.247Z,8.50
2023-03-28T10:20:13.292Z,7.60
2023-03-28T10:21:13.343Z,7.70
2023-03-28T10:22:13.648Z,7.80
2023-03-28T10:23:13.688Z,8.50
2023-03-28T10:24:13.721Z,8.10
2023-03-28T10:25:13.655Z,8.30
2023-03-28T10:26:13.781Z,8.40
2023-03-28T10:27:13.814Z,8.40
2023-03-28T10:28:14.155Z,9.10
2023-03-28T10:29:13.193Z,9.30
2023-03-28T10:30:13.352Z,8.30
2023-03-28T10:31:13.567Z,8.50
2023-03-28T10:32:13.604Z,7.60
2023-03-28T10:33:13.665Z,8.20
2023-03-28T10:34:13.709Z,8.40
2023-03-28T10:35:13.771Z,9.00
2023-03-28T10:36:13.941Z,8.40
2023-03-28T10:37:12.798Z,8.80
2023-03-28T10:38:13.805Z,10.20
2023-03-28T10:39:13.766Z,9.90
2023-03-28T10:40:13.895Z,9.90
2023-03-28T10:41:12.794Z,9.20
2023-03-28T10:42:13.773Z,9.40
2023-03-28T10:43:13.817Z,9.50
2023-03-28T10:44:14.866Z,9.80
2023-03-28T10:45:13.784Z,9.20
2023-03-28T10:46:14.069Z,8.30
2023-03-28T10:47:14.286Z,8.30
2023-03-28T10:48:13.206Z,8.90
2023-03-28T10:49:13.199Z,8.70
2023-03-28T10:50:13.250Z,8.40
2023-03-28T10:51:13.212Z,7.80
2023-03-28T10:52:13.096Z,8.30
2023-03-28T10:53:13.315Z,8.20
2023-03-28T10:54:13.272Z,8.60
2023-03-28T10:55:13.209Z,9.20
2023-03-28T10:56:13.297Z,8.80
2023-03-28T10:57:13.863Z,8.40
2023-03-28T10:58:12.995Z,8.60
2023-03-28T10:59:13.012Z,8.80
2023-03-28T11:00:13.043Z,9.30
2023-03-28T11:01:13.243Z,9.40
2023-03-28T11:02:13.107Z,8.30
2023-03-28T11:03:13.052Z,8.60
2023-03-28T11:04:13.084Z,9.20
2023-03-28T11:05:13.334Z,8.80
2023-03-28T11:06:13.240Z,9.70
2023-03-28T11:07:13.909Z,9.40
2023-03-28T11:08:13.304Z,9.20
2023-03-28T11:09:13.212Z,9.80
2023-03-28T11:10:13.105Z,10.40
2023-03-28T11:11:13.320Z,10.10
2023-03-28T11:12:23.012Z,10.00
2023-03-28T11:13:13.084Z,9.50
2023-03-28T11:14:13.021Z,10.00
2023-03-28T11:15:13.146Z,9.60
2023-03-28T11:16:13.246Z,10.50
2023-03-28T11:17:13.380Z,10.90
2023-03-28T11:18:13.368Z,10.20
2023-03-28T11:19:13.143Z,11.10
2023-03-28T11:20:13.321Z,10.00
2023-03-28T11:21:14.902Z,10.80
2023-03-28T11:22:12.761Z,11.20
2023-03-28T11:23:13.909Z,11.60
2023-03-28T11:24:12.950Z,11.90
2023-03-28T11:25:12.856Z,11.00
2023-03-28T11:26:13.844Z,11.10
2023-03-28T11:27:16.394Z,11.20
2023-03-28T11:28:15.010Z,10.40
2023-03-28T11:29:13.233Z,10.60
2023-03-28T11:30:13.222Z,11.30
2023-03-28T11:31:13.161Z,11.30
2023-03-28T11:32:13.056Z,11.70
2023-03-28T11:33:12.926Z,11.00
2023-03-28T11:34:13.118Z,11.60
2023-03-28T11:35:13.265Z,11.60
2023-03-28T11:36:13.495Z,11.40
2023-03-28T11:37:13.459Z,10.70
2023-03-28T11:38:13.502Z,11.50
2023-03-28T11:39:13.390Z,10.00
2023-03-28T11:40:13.558Z,10.30
2023-03-28T11:41:13.504Z,10.90
2023-03-28T11:42:13.416Z,10.60
2023-03-28T11:43:13.330Z,10.60
2023-03-28T11:44:13.338Z,9.90
2023-03-28T11:45:13.381Z,11.20
2023-03-28T11:46:13.606Z,10.90
2023-03-28T11:47:13.718Z,11.30
2023-03-28T11:48:13.747Z,10.70
2023-03-28T11:49:13.671Z,10.30
2023-03-28T11:50:13.620Z,10.80
2023-03-28T11:51:13.559Z,11.90
2023-03-28T11:52:13.566Z,11.90
2023-03-28T11:53:13.455Z,11.50
2023-03-28T11:54:13.383Z,11.10
2023-03-28T11:55:15.035Z,11.70
2023-03-28T11:56:13.571Z,11.90
2023-03-28T11:57:13.751Z,12.70
2023-03-28T11:58:13.823Z,10.20
2023-03-28T11:59:13.649Z,10.90
2023-03-28T12:00:31.860Z,12.10
2023-03-28T12:01:13.340Z,13.10
2023-03-28T12:02:13.806Z,12.30
2023-03-28T12:03:14.073Z,12.80
2023-03-28T12:04:13.363Z,13.40
2023-03-28T12:05:13.639Z,12.20
2023-03-28T12:06:13.930Z,11.00
2023-03-28T12:07:12.894Z,11.30
2023-03-28T12:08:12.943Z,13.30
2023-03-28T12:09:12.848Z,13.90
2023-03-28T12:10:13.769Z,13.50
2023-03-28T12:11:13.829Z,12.40
2023-03-28T12:12:14.163Z,11.40
2023-03-28T12:13:13.444Z,11.30
2023-03-28T12:14:13.620Z,10.80
2023-03-28T12:15:13.777Z,12.20
2023-03-28T12:16:13.010Z,13.40
2023-03-28T12:17:13.807Z,11.90
2023-03-28T12:18:13.829Z,10.90
2023-03-28T12:19:13.936Z,11.40
2023-03-28T12:20:12.753Z,11.10
2023-03-28T12:21:13.637Z,10.40
2023-03-28T12:22:13.686Z,11.20
2023-03-28T12:23:13.619Z,11.50
2023-03-28T12:24:13.484Z,11.00
2023-03-28T12:25:13.597Z,11.90
2023-03-28T12:26:13.496Z,13.20
2023-03-28T12:27:13.714Z,13.00
2023-03-28T12:28:14.036Z,13.20
2023-03-28T12:29:13.032Z,12.50
2023-03-28T12:30:13.369Z,12.50
2023-03-28T12:31:13.483Z,11.90
2023-03-28T12:32:13.381Z,10.70
2023-03-28T12:33:13.771Z,10.90
2023-03-28T12:34:13.638Z,11.60
2023-03-28T12:35:13.578Z,11.60
2023-03-28T12:36:13.497Z,11.20
2023-03-28T12:37:13.582Z,10.80
2023-03-28T12:38:13.907Z,10.40
2023-03-28T12:39:13.161Z,10.70
2023-03-28T12:40:13.357Z,11.10
2023-03-28T12:41:13.425Z,10.20
2023-03-28T12:42:13.901Z,11.10
2023-03-28T12:43:12.794Z,10.20
2023-03-28T12:44:14.155Z,10.50
2023-03-28T12:45:13.292Z,11.00
2023-03-28T12:46:13.301Z,10.90
2023-03-28T12:47:13.204Z,10.60
2023-03-28T12:48:13.131Z,10.50
2023-03-28T12:49:12.948Z,11.20
2023-03-28T12:50:13.431Z,12.20
2023-03-28T12:51:13.598Z,12.50
2023-03-28T12:52:13.925Z,11.50
2023-03-28T12:53:12.784Z,11.80
2023-03-28T12:54:14.271Z,12.10
2023-03-28T12:55:13.248Z,11.80
2023-03-28T12:56:13.224Z,11.20
2023-03-28T12:57:17.058Z,11.50
2023-03-28T12:58:13.275Z,11.70
2023-03-28T12:59:13.240Z,12.00
2023-03-28T13:00:13.133Z,11.90
2023-03-28T13:01:13.054Z,12.70
2023-03-28T13:02:13.373Z,13.10
2023-03-28T13:03:13.733Z,13.20
2023-03-28T13:04:13.663Z,12.70
2023-03-28T13:05:15.464Z,12.10
2023-03-28T13:06:13.386Z,12.10
2023-03-28T13:07:14.703Z,11.60
2023-03-28T13:08:13.746Z,10.70
2023-03-28T13:09:13.986Z,10.40
2023-03-28T13:10:12.974Z,10.40
2023-03-28T13:11:14.120Z,10.80
2023-03-28T13:12:13.111Z,10.60
2023-03-28T13:13:13.024Z,11.30
2023-03-28T13:14:13.284Z,10.90